createdAt,value
2018-04-09T00:00:18.841Z,15.1
2018-04-09T00:02:18.637Z,13.5
2018-04-09T00:04:19.410Z,13.4
2018-04-09T00:06:19.196Z,14
2018-04-09T00:08:18.977Z,14.1
2018-04-09T00:10:19.237Z,13.8
2018-04-09T00:12:19.010Z,13.4
2018-04-09T00:14:18.783Z,12.3
2018-04-09T00:16:19.534Z,13.1
2018-04-09T00:18:19.433Z,13.3
2018-04-09T00:20:19.240Z,12.6
2018-04-09T00:22:19.027Z,12.9
2018-04-09T00:24:18.810Z,13.8
2018-04-09T00:26:18.930Z,12.5
2018-04-09T00:28:18.711Z,12.4
2018-04-09T00:30:18.628Z,12.7
2018-04-09T00:32:19.400Z,13.1
2018-04-09T00:34:19.187Z,12.3
2018-04-09T00:36:19.286Z,12.8
2018-04-09T00:38:19.056Z,12.5
2018-04-09T00:40:19.294Z,12.5
2018-04-09T00:42:19.071Z,13.1
2018-04-09T00:44:18.924Z,15.6
2018-04-09T00:46:18.699Z,13.4
2018-04-09T00:48:19.480Z,12.9
2018-04-09T00:50:19.308Z,13.3
2018-04-09T00:52:19.074Z,12.8
2018-04-09T00:54:18.861Z,12.2
2018-04-09T00:56:19.440Z,12.3
2018-04-09T00:58:19.237Z,12.5
2018-04-09T01:00:19.043Z,12.6
2018-04-09T01:02:18.799Z,12.7
2018-04-09T01:04:18.595Z,12.9
2018-04-09T01:06:19.257Z,12.6
2018-04-09T01:08:19.038Z,12.3
2018-04-09T01:10:19.297Z,13.3
2018-04-09T01:12:19.072Z,13.1
2018-04-09T01:14:18.890Z,15.2
2018-04-09T01:16:19.038Z,11.5
2018-04-09T01:18:18.891Z,14.2
2018-04-09T01:20:18.692Z,14.1
2018-04-09T01:22:19.530Z,13.1
2018-04-09T01:24:19.311Z,13.1
2018-04-09T01:26:19.062Z,13.2
2018-04-09T01:28:18.837Z,11.8
2018-04-09T01:30:18.616Z,13.3
2018-04-09T01:32:19.393Z,13
2018-04-09T01:34:19.179Z,12.7
2018-04-09T01:36:19.309Z,14.4
2018-04-09T01:38:19.088Z,13.7
2018-04-09T01:40:19.349Z,13
2018-04-09T01:42:19.224Z,12.3
2018-04-09T01:44:19.018Z,12.1
2018-04-09T01:46:18.907Z,13.9
2018-04-09T01:48:18.698Z,12.2
2018-04-09T01:50:19.491Z,13.7
2018-04-09T01:52:19.245Z,14.1
2018-04-09T01:54:19.027Z,13
2018-04-09T01:56:18.625Z,13.3
2018-04-09T01:58:19.450Z,13.3
2018-04-09T02:00:19.408Z,13.2
2018-04-09T02:02:19.187Z,13
2018-04-09T02:04:18.968Z,11.8
2018-04-09T02:06:19.077Z,12.3
2018-04-09T02:08:18.854Z,12.3
2018-04-09T02:10:19.107Z,13.4
2018-04-09T02:12:18.880Z,12.9
2018-04-09T02:14:18.660Z,12.7
2018-04-09T02:16:19.259Z,11.7
2018-04-09T02:18:19.104Z,12.7
2018-04-09T02:20:18.878Z,14.3
2018-04-09T02:22:18.661Z,12.6
2018-04-09T02:24:19.437Z,12.9
2018-04-09T02:26:19.218Z,12.8
2018-04-09T02:28:19.009Z,13.8
2018-04-09T02:30:18.806Z,12
2018-04-09T02:32:18.588Z,13.2
2018-04-09T02:34:19.373Z,12.6
2018-04-09T02:36:18.667Z,13.8
2018-04-09T02:38:19.466Z,11.5
2018-04-09T02:40:18.740Z,13.1
2018-04-09T02:42:18.544Z,12.2
2018-04-09T02:44:19.329Z,11.5
2018-04-09T02:46:18.519Z,13.2
2018-04-09T02:48:19.308Z,12.8
2018-04-09T02:50:19.079Z,12.7
2018-04-09T02:52:18.852Z,13
2018-04-09T02:54:18.646Z,13.4
2018-04-09T02:56:18.770Z,11.7
2018-04-09T02:58:18.538Z,12.5
2018-04-09T03:00:19.301Z,12
2018-04-09T03:02:19.085Z,14.1
2018-04-09T03:04:18.885Z,11.7
2018-04-09T03:06:18.594Z,11.6
2018-04-09T03:08:19.367Z,12.1
2018-04-09T03:10:18.853Z,11.5
2018-04-09T03:12:18.639Z,11.4
2018-04-09T03:14:19.401Z,13
2018-04-09T03:16:19.031Z,12.6
2018-04-09T03:18:18.876Z,12.1
2018-04-09T03:20:18.708Z,12.9
2018-04-09T03:22:19.294Z,12.6
2018-04-09T03:24:19.075Z,11.7
2018-04-09T03:26:18.647Z,12.8
2018-04-09T03:28:19.431Z,12.4
2018-04-09T03:30:19.231Z,12.8
2018-04-09T03:32:19.073Z,13.2
2018-04-09T03:34:18.861Z,12.6
2018-04-09T03:36:18.740Z,13.4
2018-04-09T03:38:18.526Z,12.5
2018-04-09T03:40:18.830Z,13.6
2018-04-09T03:42:18.968Z,10.9
2018-04-09T03:44:18.740Z,12.8
2018-04-09T03:46:19.477Z,11.6
2018-04-09T03:48:19.252Z,12.2
2018-04-09T03:50:19.060Z,11.7
2018-04-09T03:52:18.843Z,12.1
2018-04-09T03:54:18.623Z,13.5
2018-04-09T03:56:18.804Z,9.2
2018-04-09T03:58:18.694Z,10.7
2018-04-09T04:00:18.655Z,12.6
2018-04-09T04:02:19.440Z,12.6
2018-04-09T04:04:19.206Z,10.5
2018-04-09T04:06:19.123Z,10.8
2018-04-09T04:08:18.909Z,11.1
2018-04-09T04:10:19.176Z,11.4
2018-04-09T04:12:18.829Z,10.4
2018-04-09T04:14:18.584Z,11.8
2018-04-09T04:16:19.257Z,11.1
2018-04-09T04:18:19.140Z,11.5
2018-04-09T04:20:18.950Z,11.8
2018-04-09T04:22:18.732Z,12.6
2018-04-09T04:24:18.512Z,12.1
2018-04-09T04:26:19.151Z,12.1
2018-04-09T04:28:18.936Z,11.3
2018-04-09T04:30:18.836Z,11.2
2018-04-09T04:32:18.619Z,10.9
2018-04-09T04:34:19.394Z,10.4
2018-04-09T04:36:19.008Z,11.2
2018-04-09T04:38:18.809Z,11.7
2018-04-09T04:40:19.088Z,10.7
2018-04-09T04:42:18.874Z,10.9
2018-04-09T04:44:18.657Z,12.3
2018-04-09T04:46:19.211Z,12.7
2018-04-09T04:48:18.952Z,10.8
2018-04-09T04:50:18.746Z,10.6
2018-04-09T04:52:18.534Z,11.3
2018-04-09T04:54:19.305Z,10.4
2018-04-09T04:56:18.890Z,10.7
2018-04-09T04:58:18.680Z,10.5
2018-04-09T05:00:18.533Z,9.8
2018-04-09T05:02:19.299Z,10.9
2018-04-09T05:04:19.101Z,9
2018-04-09T05:06:18.864Z,11
2018-04-09T05:08:18.659Z,10
2018-04-09T05:10:18.928Z,9
2018-04-09T05:12:18.712Z,11.5
2018-04-09T05:14:19.470Z,10.5
2018-04-09T05:16:19.193Z,9.5
2018-04-09T05:18:19.069Z,10.4
2018-04-09T05:20:18.863Z,9.9
2018-04-09T05:22:18.650Z,9.7
2018-04-09T05:24:19.418Z,10.5
2018-04-09T05:26:18.544Z,9.6
2018-04-09T05:28:19.347Z,9.2
2018-04-09T05:30:19.103Z,10.4
2018-04-09T05:32:18.908Z,10.4
2018-04-09T05:34:18.719Z,11
2018-04-09T05:36:19.392Z,10.2
2018-04-09T05:38:19.176Z,10.8
2018-04-09T05:40:19.438Z,11.7
2018-04-09T05:42:19.238Z,12.8
2018-04-09T05:44:19.022Z,10.7
2018-04-09T05:46:19.482Z,12.1
2018-04-09T05:48:19.259Z,13.2
2018-04-09T05:50:19.058Z,10.4
2018-04-09T05:52:18.839Z,11
2018-04-09T05:54:18.644Z,11.5
2018-04-09T05:56:19.372Z,12.6
2018-04-09T05:58:19.178Z,11.7
2018-04-09T06:00:18.994Z,10.5
2018-04-09T06:02:18.574Z,11.6
2018-04-09T06:04:19.367Z,12.6
2018-04-09T06:06:19.344Z,13
2018-04-09T06:08:19.118Z,12.3
2018-04-09T06:10:19.393Z,11.8
2018-04-09T06:12:19.153Z,12.3
2018-04-09T06:14:18.897Z,12.5
2018-04-09T06:16:18.826Z,12.4
2018-04-09T06:18:18.685Z,13
2018-04-09T06:20:19.587Z,12.3
2018-04-09T06:22:19.355Z,13.5
2018-04-09T06:24:19.134Z,12.7
2018-04-09T06:26:19.391Z,12.1
2018-04-09T06:28:19.161Z,13.1
2018-04-09T06:30:19.034Z,13.2
2018-04-09T06:32:18.832Z,13.1
2018-04-09T06:34:18.604Z,14.8
2018-04-09T06:36:19.209Z,14
2018-04-09T06:38:18.991Z,13.1
2018-04-09T06:40:19.321Z,13.4
2018-04-09T06:42:19.159Z,14.1
2018-04-09T06:44:18.938Z,14
2018-04-09T06:46:19.126Z,13.5
2018-04-09T06:48:18.904Z,14.2
2018-04-09T06:50:18.760Z,15.5
2018-04-09T06:52:18.528Z,14.8
2018-04-09T06:54:19.296Z,14.8
2018-04-09T06:56:18.869Z,13.6
2018-04-09T06:58:18.660Z,14.2
2018-04-09T07:00:19.631Z,12.9
2018-04-09T07:02:19.425Z,13.6
2018-04-09T07:04:19.238Z,14.6
2018-04-09T07:06:19.376Z,14.6
2018-04-09T07:08:19.181Z,14.5
2018-04-09T07:10:19.528Z,15.3
2018-04-09T07:12:19.323Z,13.9
2018-04-09T07:14:19.128Z,15.4
2018-04-09T07:16:18.703Z,14.3
2018-04-09T07:18:18.577Z,14.5
2018-04-09T07:20:19.359Z,15.5
2018-04-09T07:22:19.164Z,16.5
2018-04-09T07:24:18.972Z,17.8
2018-04-09T07:26:19.316Z,18.5
2018-04-09T07:28:19.118Z,18.7
2018-04-09T07:30:18.947Z,18.1
2018-04-09T07:32:18.748Z,18.1
2018-04-09T07:34:18.534Z,17.7
2018-04-09T07:36:18.635Z,18.6
2018-04-09T07:38:19.483Z,18.9
2018-04-09T07:40:18.779Z,18.5
2018-04-09T07:42:18.557Z,19.2
2018-04-09T07:44:19.363Z,17.7
2018-04-09T07:46:18.860Z,19.2
2018-04-09T07:48:18.646Z,18
2018-04-09T07:50:19.449Z,17.6
2018-04-09T07:52:19.249Z,18.2
2018-04-09T07:54:19.036Z,17.3
2018-04-09T07:56:18.824Z,17
2018-04-09T07:58:18.619Z,14.8
2018-04-09T08:00:19.431Z,15.4
2018-04-09T08:02:19.244Z,14.2
2018-04-09T08:04:19.040Z,13.9
2018-04-09T08:06:18.711Z,14.8
2018-04-09T08:08:18.536Z,13.4
2018-04-09T08:10:18.822Z,13.5
2018-04-09T08:12:19.468Z,12.7
2018-04-09T08:14:19.272Z,13.3
2018-04-09T08:16:19.079Z,14.4
2018-04-09T08:18:18.941Z,13.6
2018-04-09T08:20:18.722Z,14.2
2018-04-09T08:22:18.567Z,14.4
2018-04-09T08:24:19.378Z,14
2018-04-09T08:26:18.637Z,12.6
2018-04-09T08:28:19.471Z,12.8
2018-04-09T08:30:19.379Z,12.5
2018-04-09T08:32:19.177Z,15
2018-04-09T08:34:18.953Z,14.1
2018-04-09T08:36:19.189Z,14.8
2018-04-09T08:38:19.031Z,13.9
2018-04-09T08:40:19.287Z,11.9
2018-04-09T08:42:19.077Z,13.2
2018-04-09T08:44:18.875Z,11.9
2018-04-09T08:46:19.095Z,11
2018-04-09T08:48:18.903Z,10.2
2018-04-09T08:50:18.705Z,10.7
2018-04-09T08:52:18.760Z,10.4
2018-04-09T08:54:18.545Z,9.5
2018-04-09T08:56:19.127Z,10.5
2018-04-09T08:58:18.948Z,9.5
2018-04-09T09:00:18.777Z,9.5
2018-04-09T09:02:18.569Z,10.9
2018-04-09T09:04:19.377Z,8.6
2018-04-09T09:06:19.072Z,9.1
2018-04-09T09:08:18.856Z,10.9
2018-04-09T09:10:19.118Z,8.5
2018-04-09T09:12:18.931Z,7.7
2018-04-09T09:14:18.773Z,8.4
2018-04-09T09:16:18.979Z,8.2
2018-04-09T09:18:18.859Z,8.5
2018-04-09T09:20:18.674Z,7
2018-04-09T09:22:19.480Z,7.8
2018-04-09T09:24:19.280Z,6.7
2018-04-09T09:26:18.924Z,7.1
2018-04-09T09:28:18.716Z,6.5
2018-04-09T09:30:18.750Z,7.2
2018-04-09T09:32:18.576Z,7
2018-04-09T09:34:19.385Z,8.5
2018-04-09T09:36:19.009Z,7.4
2018-04-09T09:38:18.826Z,5.9
2018-04-09T09:40:19.117Z,5.8
2018-04-09T09:42:18.931Z,6.2
2018-04-09T09:44:18.722Z,7.1
2018-04-09T09:46:19.402Z,6.1
2018-04-09T09:48:19.225Z,6.6
2018-04-09T09:50:19.046Z,6.5
2018-04-09T09:52:18.870Z,6.5
2018-04-09T09:54:18.665Z,6
2018-04-09T09:56:18.940Z,6.3
2018-04-09T09:58:18.733Z,5.6
2018-04-09T10:00:17.613Z,4.8
2018-04-09T10:02:17.628Z,6.4
2018-04-09T10:04:19.442Z,6.2
2018-04-09T10:06:19.164Z,5.8
2018-04-09T10:08:19.004Z,6.3
2018-04-09T10:10:18.332Z,5.3
2018-04-09T10:12:19.145Z,5.7
2018-04-09T10:14:18.978Z,4.3
2018-04-09T10:16:19.111Z,5.4
2018-04-09T10:18:18.019Z,5.4
2018-04-09T10:20:18.865Z,5.3
2018-04-09T10:22:18.708Z,4.4
2018-04-09T10:24:19.504Z,4.1
2018-04-09T10:26:18.645Z,5.3
2018-04-09T10:28:19.461Z,3.8
2018-04-09T10:30:18.444Z,3.8
2018-04-09T10:32:17.966Z,3
2018-04-09T10:34:18.781Z,5.6
2018-04-09T10:36:18.153Z,4.4
2018-04-09T10:38:17.958Z,4.5
2018-04-09T10:40:19.258Z,3.8
2018-04-09T10:42:18.083Z,5.2
2018-04-09T10:44:17.901Z,4.2
2018-04-09T10:46:17.737Z,3.8
2018-04-09T10:48:18.539Z,3.8
2018-04-09T10:50:18.490Z,4.3
2018-04-09T10:52:18.313Z,4.3
2018-04-09T10:54:18.128Z,3.5
2018-04-09T10:56:18.511Z,3.5
2018-04-09T10:58:18.312Z,4.1
2018-04-09T11:00:18.113Z,3.8
2018-04-09T11:02:18.928Z,4.3
2018-04-09T11:04:17.736Z,4.2
2018-04-09T11:06:18.209Z,4.6
2018-04-09T11:08:19.024Z,4.3
2018-04-09T11:10:18.327Z,3.8
2018-04-09T11:12:18.188Z,3.9
2018-04-09T11:14:18.000Z,4.2
2018-04-09T11:16:18.448Z,5.1
2018-04-09T11:18:19.324Z,4.2
2018-04-09T11:20:18.171Z,4.7
2018-04-09T11:22:17.716Z,3.4
2018-04-09T11:24:17.542Z,3.6
2018-04-09T11:26:18.146Z,4.3
2018-04-09T11:28:17.955Z,5.3
2018-04-09T11:30:17.789Z,5.3
2018-04-09T11:32:17.895Z,3.8
2018-04-09T11:34:17.702Z,4.8
2018-04-09T11:36:18.489Z,4.6
2018-04-09T11:38:18.299Z,4.6
2018-04-09T11:40:17.713Z,3.7
2018-04-09T11:42:18.507Z,4.6
2018-04-09T11:44:18.299Z,3.9
2018-04-09T11:46:17.869Z,4.3
2018-04-09T11:48:17.695Z,4.6
2018-04-09T11:50:18.578Z,4
2018-04-09T11:52:18.435Z,4.2
2018-04-09T11:54:18.259Z,4
2018-04-09T11:56:17.635Z,4
2018-04-09T11:58:18.446Z,4.6
2018-04-09T12:00:18.256Z,4.5
2018-04-09T12:02:18.059Z,4
2018-04-09T12:04:17.878Z,4.5
2018-04-09T12:06:18.475Z,4.1
2018-04-09T12:08:18.268Z,4.7
2018-04-09T12:10:17.609Z,3.7
2018-04-09T12:12:17.694Z,4.1
2018-04-09T12:14:18.487Z,5.2
2018-04-09T12:16:17.722Z,4.8
2018-04-09T12:18:17.613Z,4.5
2018-04-09T12:20:18.489Z,4.8
2018-04-09T12:22:18.321Z,4.3
2018-04-09T12:24:18.140Z,4.2
2018-04-09T12:26:17.784Z,4.8
2018-04-09T12:28:17.594Z,4
2018-04-09T12:30:18.452Z,4.8
2018-04-09T12:32:18.259Z,4.2
2018-04-09T12:34:18.076Z,3.8
2018-04-09T12:36:18.222Z,3.9
2018-04-09T12:38:18.064Z,4.7
2018-04-09T12:40:18.329Z,4.5
2018-04-09T12:42:18.162Z,4.4
2018-04-09T12:44:17.996Z,3.8
2018-04-09T12:46:18.485Z,3.8
2018-04-09T12:48:18.285Z,4.8
2018-04-09T12:50:18.114Z,3.6
2018-04-09T12:52:17.816Z,3.4
2018-04-09T12:54:17.656Z,3.3
2018-04-09T12:56:17.856Z,4.1
2018-04-09T12:58:17.732Z,3.2
2018-04-09T13:00:17.652Z,4.1
2018-04-09T13:02:18.508Z,4.1
2018-04-09T13:04:18.333Z,3.7
2018-04-09T13:06:18.225Z,4
2018-04-09T13:08:18.075Z,3.5
2018-04-09T13:10:18.454Z,3.1
2018-04-09T13:12:18.282Z,3
2018-04-09T13:14:18.145Z,3.2
2018-04-09T13:16:17.836Z,4.3
2018-04-09T13:18:17.775Z,4.5
2018-04-09T13:20:17.660Z,4.1
2018-04-09T13:22:18.506Z,4.7
2018-04-09T13:24:18.352Z,4.1
2018-04-09T13:26:18.493Z,4.7
2018-04-09T13:28:18.337Z,4.2
2018-04-09T13:30:18.194Z,4.6
2018-04-09T13:32:18.039Z,3.6
2018-04-09T13:34:17.894Z,3.4
2018-04-09T13:36:18.114Z,4.1
2018-04-09T13:38:17.966Z,3.6
2018-04-09T13:40:18.316Z,4.5
2018-04-09T13:42:18.178Z,3.9
2018-04-09T13:44:18.037Z,4.6
2018-04-09T13:46:17.672Z,3.5
2018-04-09T13:48:18.526Z,3.3
2018-04-09T13:50:18.380Z,3.4
2018-04-09T13:52:18.238Z,3.2
2018-04-09T13:54:18.082Z,4
2018-04-09T13:56:17.800Z,4.2
2018-04-09T13:58:17.657Z,3.5
2018-04-09T14:00:18.481Z,3.2
2018-04-09T14:02:18.337Z,3.8
2018-04-09T14:04:18.187Z,4.2
2018-04-09T14:06:18.379Z,4.5
2018-04-09T14:08:18.243Z,4.3
2018-04-09T14:10:17.600Z,5
2018-04-09T14:12:18.463Z,7.2
2018-04-09T14:14:18.346Z,4.3
2018-04-09T14:16:18.255Z,4.7
2018-04-09T14:18:18.318Z,4.3
2018-04-09T14:20:18.140Z,3.7
2018-04-09T14:22:17.971Z,4.6
2018-04-09T14:24:17.809Z,4.9
2018-04-09T14:26:17.788Z,5
2018-04-09T14:28:17.602Z,4.3
2018-04-09T14:30:18.450Z,4.6
2018-04-09T14:32:18.298Z,5.1
2018-04-09T14:34:18.149Z,4.7
2018-04-09T14:36:17.622Z,4.3
2018-04-09T14:38:18.465Z,4.5
2018-04-09T14:40:17.793Z,3.7
2018-04-09T14:42:17.666Z,3.3
2018-04-09T14:44:18.494Z,4.5
2018-04-09T14:46:17.628Z,3.4
2018-04-09T14:48:18.469Z,3.5
2018-04-09T14:50:18.290Z,4.8
2018-04-09T14:52:18.111Z,3.9
2018-04-09T14:54:17.919Z,4.1
2018-04-09T14:56:18.058Z,3
2018-04-09T14:58:17.877Z,3.5
2018-04-09T15:00:17.702Z,3.9
2018-04-09T15:02:18.539Z,4
2018-04-09T15:04:18.373Z,3.6
2018-04-09T15:06:17.880Z,3.6
2018-04-09T15:08:17.685Z,3.8
2018-04-09T15:10:17.975Z,3.6
2018-04-09T15:12:17.785Z,3.5
2018-04-09T15:14:17.605Z,3.5
2018-04-09T15:16:18.011Z,3.2
2018-04-09T15:18:17.925Z,3.7
2018-04-09T15:20:17.775Z,3.3
2018-04-09T15:22:17.715Z,3.2
2018-04-09T15:24:17.553Z,3.3
2018-04-09T15:26:17.865Z,4.2
2018-04-09T15:28:17.710Z,3.5
2018-04-09T15:30:17.568Z,3.4
2018-04-09T15:32:18.389Z,3.9
2018-04-09T15:34:18.237Z,3.6
2018-04-09T15:36:18.363Z,3.8
2018-04-09T15:38:18.236Z,3
2018-04-09T15:40:18.548Z,3.1
2018-04-09T15:42:18.387Z,3.1
2018-04-09T15:44:18.207Z,3.2
2018-04-09T15:46:18.343Z,3.9
2018-04-09T15:48:18.167Z,3.5
2018-04-09T15:50:17.988Z,4
2018-04-09T15:52:17.822Z,3.2
2018-04-09T15:54:17.665Z,3.6
2018-04-09T15:56:17.835Z,4.4
2018-04-09T15:58:17.649Z,3.9
2018-04-09T16:00:18.501Z,3.8
2018-04-09T16:02:18.125Z,3.9
2018-04-09T16:04:17.953Z,3.3
2018-04-09T16:06:18.258Z,2.8
2018-04-09T16:08:18.057Z,4.2
2018-04-09T16:10:18.478Z,3.8
2018-04-09T16:12:18.306Z,3.3
2018-04-09T16:14:18.154Z,4.1
2018-04-09T16:16:17.777Z,3.5
2018-04-09T16:18:17.735Z,3.4
2018-04-09T16:20:17.649Z,3.7
2018-04-09T16:22:18.513Z,3.4
2018-04-09T16:24:18.330Z,5
2018-04-09T16:26:17.836Z,3.8
2018-04-09T16:28:17.674Z,3.5
2018-04-09T16:30:18.536Z,2.6
2018-04-09T16:32:18.353Z,3.9
2018-04-09T16:34:18.173Z,3.1
2018-04-09T16:36:18.450Z,3.6
2018-04-09T16:38:18.273Z,4.2
2018-04-09T16:40:17.717Z,3.7
2018-04-09T16:42:18.586Z,3.3
2018-04-09T16:44:18.440Z,3.4
2018-04-09T16:46:18.191Z,4.5
2018-04-09T16:48:18.025Z,4.6
2018-04-09T16:50:17.865Z,3.9
2018-04-09T16:52:17.683Z,4.3
2018-04-09T16:54:18.492Z,3.4
2018-04-09T16:56:18.307Z,3.5
2018-04-09T16:58:18.135Z,3.5
2018-04-09T17:00:17.965Z,3.7
2018-04-09T17:02:17.812Z,3.6
2018-04-09T17:04:17.649Z,3.7
2018-04-09T17:06:18.114Z,3.5
2018-04-09T17:08:17.930Z,3.8
2018-04-09T17:10:18.199Z,3.1
2018-04-09T17:12:18.007Z,4
2018-04-09T17:14:17.857Z,4.3
2018-04-09T17:16:18.278Z,3.1
2018-04-09T17:18:18.198Z,3.9
2018-04-09T17:20:18.162Z,3.5
2018-04-09T17:22:18.011Z,3.7
2018-04-09T17:24:17.831Z,4.2
2018-04-09T17:26:17.583Z,3.9
2018-04-09T17:28:18.436Z,3.7
2018-04-09T17:30:18.358Z,3.2
2018-04-09T17:32:18.162Z,3.6
2018-04-09T17:34:18.048Z,3.4
2018-04-09T17:36:18.376Z,4.4
2018-04-09T17:38:18.214Z,4.1
2018-04-09T17:40:18.577Z,4.6
2018-04-09T17:42:18.453Z,3.6
2018-04-09T17:44:18.276Z,4.3
2018-04-09T17:46:17.998Z,5
2018-04-09T17:48:17.826Z,4.2
2018-04-09T17:50:17.669Z,4.8
2018-04-09T17:52:18.479Z,4
2018-04-09T17:54:18.301Z,4.7
2018-04-09T17:56:18.280Z,4.3
2018-04-09T17:58:18.104Z,4.8
2018-04-09T18:00:17.950Z,4.9
2018-04-09T18:02:17.821Z,4.2
2018-04-09T18:04:17.654Z,4.7
2018-04-09T18:06:17.898Z,5.6
2018-04-09T18:08:17.710Z,5.6
2018-04-09T18:10:17.978Z,5
2018-04-09T18:12:17.793Z,4.4
2018-04-09T18:14:17.576Z,4.4
2018-04-09T18:16:17.667Z,3.7
2018-04-09T18:18:17.565Z,4.2
2018-04-09T18:20:18.391Z,4.6
2018-04-09T18:22:18.199Z,4.1
2018-04-09T18:24:18.029Z,4.6
2018-04-09T18:26:18.305Z,4.5
2018-04-09T18:28:18.132Z,3.8
2018-04-09T18:30:18.007Z,4.3
2018-04-09T18:32:17.612Z,4.6
2018-04-09T18:34:19.452Z,4.3
2018-04-09T18:36:18.334Z,4.9
2018-04-09T18:38:18.148Z,4.8
2018-04-09T18:40:18.451Z,4.4
2018-04-09T18:42:18.282Z,4.6
2018-04-09T18:44:18.084Z,4.5
2018-04-09T18:46:18.236Z,4.9
2018-04-09T18:48:19.119Z,6.2
2018-04-09T18:50:18.983Z,7
2018-04-09T18:52:17.795Z,5.1
2018-04-09T18:54:17.631Z,6.3
2018-04-09T18:56:17.985Z,6.8
2018-04-09T18:58:17.799Z,5.6
2018-04-09T19:00:18.609Z,4.6
2018-04-09T19:02:19.426Z,5.7
2018-04-09T19:04:18.249Z,5.1
2018-04-09T19:06:18.435Z,6.4
2018-04-09T19:08:18.261Z,5.4
2018-04-09T19:10:17.541Z,5.4
2018-04-09T19:12:19.338Z,5.5
2018-04-09T19:14:18.159Z,5.9
2018-04-09T19:16:18.339Z,5.3
2018-04-09T19:18:19.225Z,5.7
2018-04-09T19:20:19.054Z,4.9
2018-04-09T19:22:18.873Z,4.3
2018-04-09T19:24:17.672Z,4.9
2018-04-09T19:26:18.788Z,5.4
2018-04-09T19:28:17.611Z,4.8
2018-04-09T19:30:19.428Z,5
2018-04-09T19:32:18.257Z,5.1
2018-04-09T19:34:18.070Z,4.5
2018-04-09T19:36:18.924Z,4.9
2018-04-09T19:38:18.726Z,5
2018-04-09T19:40:19.132Z,5.6
2018-04-09T19:48:19.072Z,6.1
2018-04-09T19:50:17.732Z,5
2018-04-09T19:52:18.552Z,4.8
2018-04-09T19:54:18.357Z,4.6
2018-04-09T19:56:18.498Z,5.3
2018-04-09T19:58:19.307Z,5.2
2018-04-09T20:00:19.248Z,4.6
2018-04-09T20:02:18.757Z,7.8
2018-04-09T20:04:17.570Z,5.3
2018-04-09T20:06:18.361Z,5.5
2018-04-09T20:08:18.163Z,4.1
2018-04-09T20:10:19.450Z,4.6
2018-04-09T20:12:19.314Z,4.7
2018-04-09T20:14:19.143Z,4.7
2018-04-09T20:16:18.871Z,5.4
2018-04-09T20:18:18.723Z,4.3
2018-04-09T20:20:19.497Z,3.5
2018-04-09T20:22:19.304Z,4.1
2018-04-09T20:24:19.131Z,4.9
2018-04-09T20:26:19.245Z,4.8
2018-04-09T20:28:18.050Z,4.4
2018-04-09T20:30:18.865Z,4.7
2018-04-09T20:32:18.678Z,3.6
2018-04-09T20:34:19.464Z,4.1
2018-04-09T20:36:19.245Z,4.1
2018-04-09T20:38:19.067Z,3.9
2018-04-09T20:40:19.381Z,4.4
2018-04-09T20:42:19.164Z,4.2
2018-04-09T20:44:18.961Z,4.3
2018-04-09T20:46:19.065Z,4.8
2018-04-09T20:48:18.854Z,4.5
2018-04-09T20:50:18.645Z,4.5
2018-04-09T20:52:19.455Z,4.8
2018-04-09T20:54:19.264Z,4.4
2018-04-09T20:56:19.214Z,4.4
2018-04-09T20:58:19.014Z,4.4
2018-04-09T21:00:18.933Z,4.3
2018-04-09T21:02:17.981Z,4.4
2018-04-09T21:04:17.779Z,4.3
2018-04-09T21:06:18.942Z,5.5
2018-04-09T21:08:18.859Z,4.9
2018-04-09T21:10:19.292Z,4.8
2018-04-09T21:12:19.126Z,5
2018-04-09T21:14:18.914Z,5.1
2018-04-09T21:16:19.060Z,5.8
2018-04-09T21:18:18.933Z,5
2018-04-09T21:20:18.719Z,4.8
2018-04-09T21:22:19.502Z,5.3
2018-04-09T21:24:19.307Z,4.3
2018-04-09T21:26:18.741Z,5.3
2018-04-09T21:28:18.564Z,6.2
2018-04-09T21:30:19.354Z,4.9
2018-04-09T21:32:19.143Z,5.3
2018-04-09T21:34:18.927Z,4.8
2018-04-09T21:36:18.645Z,5.2
2018-04-09T21:38:19.435Z,5.9
2018-04-09T21:40:18.740Z,4.4
2018-04-09T21:42:18.550Z,5.9
2018-04-09T21:44:19.367Z,5.3
2018-04-09T21:46:18.959Z,5.5
2018-04-09T21:48:18.763Z,5.3
2018-04-09T21:50:18.758Z,5.1
2018-04-09T21:52:18.567Z,5.9
2018-04-09T21:54:19.351Z,5.3
2018-04-09T21:56:18.806Z,5.8
2018-04-09T21:58:18.598Z,4.6
2018-04-09T22:00:19.421Z,5.2
2018-04-09T22:02:19.227Z,5.9
2018-04-09T22:04:19.042Z,6.4
2018-04-09T22:06:19.443Z,5.1
2018-04-09T22:08:19.269Z,6.4
2018-04-09T22:10:19.531Z,5.1
2018-04-09T22:12:19.330Z,6.3
2018-04-09T22:14:19.137Z,5.7
2018-04-09T22:16:18.596Z,5.9
2018-04-09T22:18:19.489Z,5.6
2018-04-09T22:20:19.310Z,6
2018-04-09T22:22:18.929Z,6.5
2018-04-09T22:24:18.752Z,5.8
2018-04-09T22:26:19.338Z,7.2
2018-04-09T22:28:19.124Z,6
2018-04-09T22:30:18.930Z,6.1
2018-04-09T22:32:18.737Z,7.2
2018-04-09T22:34:18.542Z,6
2018-04-09T22:36:18.676Z,6.3
2018-04-09T22:38:19.493Z,7
2018-04-09T22:40:18.777Z,6.6
2018-04-09T22:42:18.552Z,6.1
2018-04-09T22:44:19.347Z,6.9
2018-04-09T22:46:19.032Z,6.1
2018-04-09T22:48:18.843Z,6.7
2018-04-09T22:50:18.647Z,6.3
2018-04-09T22:52:19.463Z,6.3
2018-04-09T22:54:19.255Z,8
2018-04-09T22:56:18.963Z,7.9
2018-04-09T22:58:18.758Z,6.7
2018-04-09T23:00:18.557Z,6.6
2018-04-09T23:02:19.391Z,7.3
2018-04-09T23:04:19.326Z,6.9
2018-04-09T23:06:18.765Z,7.4
2018-04-09T23:08:18.556Z,6.7
2018-04-09T23:10:18.810Z,7.1
2018-04-09T23:12:18.587Z,8.4
2018-04-09T23:14:19.394Z,8.3
2018-04-09T23:16:19.323Z,6.9
2018-04-09T23:18:19.205Z,8.3
2018-04-09T23:20:19.009Z,7.6
2018-04-09T23:22:18.819Z,7.8
2018-04-09T23:24:18.637Z,7.7
2018-04-09T23:26:19.213Z,7.2
2018-04-09T23:28:19.014Z,6.9
2018-04-09T23:30:18.899Z,7.2
2018-04-09T23:32:19.433Z,7.2
2018-04-09T23:34:19.230Z,8
2018-04-09T23:36:19.360Z,7
2018-04-09T23:38:19.180Z,7.9
2018-04-09T23:40:19.456Z,7.6
2018-04-09T23:42:19.283Z,7.9
2018-04-09T23:44:19.080Z,8.3
2018-04-09T23:46:18.708Z,9.7
2018-04-09T23:48:19.490Z,8.8
2018-04-09T23:50:19.302Z,8.4
2018-04-09T23:52:18.848Z,8.2
2018-04-09T23:54:18.646Z,8.9
2018-04-09T23:56:19.283Z,9.2
2018-04-09T23:58:19.090Z,8.6
